sensor_id;sensor_type;location;lat;lon;timestamp;P1;durP1;ratioP1;P2;durP2;ratioP2
22455;SDS011;11395;53.204;6.502;2022-12-11T00:09:32;3.60;;;3.20;;
22455;SDS011;11395;53.204;6.502;2022-12-11T00:11:59;5.17;;;4.17;;
22455;SDS011;11395;53.204;6.502;2022-12-11T00:14:27;4.20;;;3.67;;
22455;SDS011;11395;53.204;6.502;2022-12-11T00:16:54;4.13;;;3.57;;
22455;SDS011;11395;53.204;6.502;2022-12-11T00:19:20;4.73;;;3.60;;
22455;SDS011;11395;53.204;6.502;2022-12-11T00:21:46;4.40;;;4.00;;
22455;SDS011;11395;53.204;6.502;2022-12-11T00:24:12;4.73;;;3.43;;
22455;SDS011;11395;53.204;6.502;2022-12-11T00:26:38;5.10;;;4.00;;
22455;SDS011;11395;53.204;6.502;2022-12-11T00:29:05;4.47;;;3.63;;
22455;SDS011;11395;53.204;6.502;2022-12-11T00:31:33;4.10;;;3.50;;
22455;SDS011;11395;53.204;6.502;2022-12-11T00:34:00;4.97;;;3.40;;
22455;SDS011;11395;53.204;6.502;2022-12-11T00:36:27;4.50;;;3.97;;
22455;SDS011;11395;53.204;6.502;2022-12-11T00:38:53;4.80;;;3.77;;
22455;SDS011;11395;53.204;6.502;2022-12-11T00:41:19;3.70;;;3.30;;
22455;SDS011;11395;53.204;6.502;2022-12-11T00:43:46;4.47;;;3.83;;
22455;SDS011;11395;53.204;6.502;2022-12-11T00:46:12;4.27;;;3.67;;
22455;SDS011;11395;53.204;6.502;2022-12-11T00:48:38;3.70;;;3.40;;
22455;SDS011;11395;53.204;6.502;2022-12-11T00:51:05;4.57;;;3.30;;
22455;SDS011;11395;53.204;6.502;2022-12-11T00:53:31;4.80;;;3.90;;
22455;SDS011;11395;53.204;6.502;2022-12-11T00:55:58;4.03;;;3.50;;
22455;SDS011;11395;53.204;6.502;2022-12-11T00:58:24;4.23;;;3.83;;
22455;SDS011;11395;53.204;6.502;2022-12-11T01:09:30;3.93;;;3.53;;
22455;SDS011;11395;53.204;6.502;2022-12-11T01:12:15;5.30;;;4.00;;
22455;SDS011;11395;53.204;6.502;2022-12-11T01:14:41;4.87;;;3.67;;
22455;SDS011;11395;53.204;6.502;2022-12-11T01:17:07;4.03;;;3.63;;
22455;SDS011;11395;53.204;6.502;2022-12-11T01:19:33;3.83;;;3.40;;
22455;SDS011;11395;53.204;6.502;2022-12-11T01:22:00;5.50;;;4.20;;
22455;SDS011;11395;53.204;6.502;2022-12-11T01:24:26;4.07;;;3.63;;
22455;SDS011;11395;53.204;6.502;2022-12-11T01:26:52;4.07;;;3.67;;
22455;SDS011;11395;53.204;6.502;2022-12-11T01:29:18;3.90;;;3.50;;
22455;SDS011;11395;53.204;6.502;2022-12-11T01:31:45;4.60;;;3.70;;
22455;SDS011;11395;53.204;6.502;2022-12-11T01:34:11;4.37;;;3.97;;
22455;SDS011;11395;53.204;6.502;2022-12-11T01:36:37;5.03;;;3.97;;
22455;SDS011;11395;53.204;6.502;2022-12-11T01:39:03;3.50;;;3.20;;
22455;SDS011;11395;53.204;6.502;2022-12-11T01:41:29;3.33;;;2.93;;
22455;SDS011;11395;53.204;6.502;2022-12-11T01:46:28;3.70;;;3.13;;
22455;SDS011;11395;53.204;6.502;2022-12-11T01:48:56;3.97;;;3.57;;
22455;SDS011;11395;53.204;6.502;2022-12-11T01:51:23;4.17;;;3.70;;
22455;SDS011;11395;53.204;6.502;2022-12-11T01:53:52;5.30;;;4.20;;
22455;SDS011;11395;53.204;6.502;2022-12-11T01:56:25;4.87;;;4.03;;
22455;SDS011;11395;53.204;6.502;2022-12-11T01:58:54;4.90;;;3.97;;
22455;SDS011;11395;53.204;6.502;2022-12-11T02:05:31;4.07;;;3.50;;
22455;SDS011;11395;53.204;6.502;2022-12-11T02:07:58;3.77;;;3.47;;
22455;SDS011;11395;53.204;6.502;2022-12-11T02:16:25;4.67;;;4.20;;
22455;SDS011;11395;53.204;6.502;2022-12-11T02:19:07;3.70;;;3.40;;
22455;SDS011;11395;53.204;6.502;2022-12-11T02:21:49;4.37;;;3.60;;
22455;SDS011;11395;53.204;6.502;2022-12-11T02:24:40;4.23;;;3.73;;
22455;SDS011;11395;53.204;6.502;2022-12-11T02:29:57;4.70;;;3.53;;
22455;SDS011;11395;53.204;6.502;2022-12-11T02:32:31;5.57;;;4.67;;
22455;SDS011;11395;53.204;6.502;2022-12-11T02:35:16;4.37;;;3.50;;
22455;SDS011;11395;53.204;6.502;2022-12-11T02:37:46;4.00;;;3.60;;
22455;SDS011;11395;53.204;6.502;2022-12-11T02:40:18;4.33;;;3.77;;
22455;SDS011;11395;53.204;6.502;2022-12-11T02:42:48;4.53;;;4.00;;
22455;SDS011;11395;53.204;6.502;2022-12-11T02:45:16;4.33;;;3.93;;
22455;SDS011;11395;53.204;6.502;2022-12-11T02:47:44;3.43;;;3.10;;
22455;SDS011;11395;53.204;6.502;2022-12-11T02:50:13;4.30;;;3.70;;
22455;SDS011;11395;53.204;6.502;2022-12-11T02:52:42;4.60;;;4.10;;
22455;SDS011;11395;53.204;6.502;2022-12-11T02:55:11;4.10;;;3.70;;
22455;SDS011;11395;53.204;6.502;2022-12-11T03:00:15;4.17;;;3.67;;
22455;SDS011;11395;53.204;6.502;2022-12-11T03:02:43;4.20;;;3.70;;
22455;SDS011;11395;53.204;6.502;2022-12-11T03:05:10;4.43;;;3.73;;
22455;SDS011;11395;53.204;6.502;2022-12-11T03:07:39;4.67;;;3.80;;
22455;SDS011;11395;53.204;6.502;2022-12-11T03:10:07;5.63;;;4.03;;
22455;SDS011;11395;53.204;6.502;2022-12-11T03:12:36;4.97;;;3.80;;
22455;SDS011;11395;53.204;6.502;2022-12-11T03:15:06;5.07;;;3.73;;
22455;SDS011;11395;53.204;6.502;2022-12-11T03:23:08;5.43;;;4.30;;
22455;SDS011;11395;53.204;6.502;2022-12-11T03:25:47;5.80;;;4.20;;
22455;SDS011;11395;53.204;6.502;2022-12-11T03:28:28;5.07;;;4.17;;
22455;SDS011;11395;53.204;6.502;2022-12-11T03:31:07;4.37;;;3.60;;
22455;SDS011;11395;53.204;6.502;2022-12-11T03:33:39;5.17;;;3.83;;
22455;SDS011;11395;53.204;6.502;2022-12-11T03:36:13;5.07;;;4.07;;
22455;SDS011;11395;53.204;6.502;2022-12-11T03:38:57;5.53;;;4.23;;
22455;SDS011;11395;53.204;6.502;2022-12-11T03:41:26;4.00;;;3.60;;
22455;SDS011;11395;53.204;6.502;2022-12-11T03:43:56;4.13;;;3.53;;
22455;SDS011;11395;53.204;6.502;2022-12-11T03:46:25;4.50;;;3.30;;
22455;SDS011;11395;53.204;6.502;2022-12-11T03:48:55;4.47;;;3.80;;
22455;SDS011;11395;53.204;6.502;2022-12-11T03:51:28;4.80;;;3.83;;
22455;SDS011;11395;53.204;6.502;2022-12-11T03:53:56;4.90;;;3.37;;
22455;SDS011;11395;53.204;6.502;2022-12-11T03:56:23;4.40;;;3.70;;
22455;SDS011;11395;53.204;6.502;2022-12-11T03:58:53;4.77;;;3.57;;
22455;SDS011;11395;53.204;6.502;2022-12-11T04:01:19;4.20;;;3.63;;
22455;SDS011;11395;53.204;6.502;2022-12-11T04:03:45;5.37;;;4.70;;
22455;SDS011;11395;53.204;6.502;2022-12-11T04:06:12;4.90;;;4.40;;
22455;SDS011;11395;53.204;6.502;2022-12-11T04:08:38;4.20;;;3.80;;
22455;SDS011;11395;53.204;6.502;2022-12-11T04:11:04;4.43;;;3.80;;
22455;SDS011;11395;53.204;6.502;2022-12-11T04:13:48;3.87;;;3.43;;
22455;SDS011;11395;53.204;6.502;2022-12-11T04:16:35;4.90;;;3.93;;
22455;SDS011;11395;53.204;6.502;2022-12-11T04:19:01;5.43;;;3.97;;
22455;SDS011;11395;53.204;6.502;2022-12-11T04:21:46;4.53;;;3.90;;
22455;SDS011;11395;53.204;6.502;2022-12-11T04:24:48;4.90;;;3.93;;
22455;SDS011;11395;53.204;6.502;2022-12-11T04:27:15;4.43;;;3.60;;
22455;SDS011;11395;53.204;6.502;2022-12-11T04:30:03;4.80;;;3.97;;
22455;SDS011;11395;53.204;6.502;2022-12-11T04:32:31;4.50;;;4.07;;
22455;SDS011;11395;53.204;6.502;2022-12-11T04:34:57;4.03;;;3.63;;
22455;SDS011;11395;53.204;6.502;2022-12-11T04:37:23;5.27;;;3.63;;
22455;SDS011;11395;53.204;6.502;2022-12-11T04:39:51;4.87;;;3.33;;
22455;SDS011;11395;53.204;6.502;2022-12-11T04:42:17;4.20;;;3.60;;
22455;SDS011;11395;53.204;6.502;2022-12-11T04:44:43;3.97;;;3.57;;
22455;SDS011;11395;53.204;6.502;2022-12-11T04:47:10;3.80;;;3.13;;
22455;SDS011;11395;53.204;6.502;2022-12-11T04:49:36;3.30;;;3.00;;
22455;SDS011;11395;53.204;6.502;2022-12-11T04:52:02;3.77;;;3.37;;
22455;SDS011;11395;53.204;6.502;2022-12-11T04:54:29;3.83;;;3.40;;
22455;SDS011;11395;53.204;6.502;2022-12-11T04:56:56;5.07;;;3.30;;
22455;SDS011;11395;53.204;6.502;2022-12-11T04:59:22;3.40;;;3.07;;
22455;SDS011;11395;53.204;6.502;2022-12-11T05:01:48;3.73;;;3.10;;
22455;SDS011;11395;53.204;6.502;2022-12-11T05:04:14;3.33;;;3.03;;
22455;SDS011;11395;53.204;6.502;2022-12-11T05:06:41;3.00;;;2.70;;
22455;SDS011;11395;53.204;6.502;2022-12-11T05:09:10;3.43;;;3.13;;
22455;SDS011;11395;53.204;6.502;2022-12-11T05:11:37;3.90;;;3.37;;
22455;SDS011;11395;53.204;6.502;2022-12-11T05:14:03;4.07;;;3.30;;
22455;SDS011;11395;53.204;6.502;2022-12-11T05:16:30;3.20;;;2.90;;
22455;SDS011;11395;53.204;6.502;2022-12-11T05:18:56;3.27;;;2.97;;
22455;SDS011;11395;53.204;6.502;2022-12-11T05:21:22;4.17;;;3.13;;
22455;SDS011;11395;53.204;6.502;2022-12-11T05:23:49;3.40;;;3.10;;
22455;SDS011;11395;53.204;6.502;2022-12-11T05:26:16;2.90;;;2.60;;
22455;SDS011;11395;53.204;6.502;2022-12-11T05:28:45;2.87;;;2.53;;
22455;SDS011;11395;53.204;6.502;2022-12-11T05:31:17;3.03;;;2.63;;
22455;SDS011;11395;53.204;6.502;2022-12-11T05:33:45;3.23;;;2.93;;
22455;SDS011;11395;53.204;6.502;2022-12-11T05:36:20;2.40;;;2.20;;
22455;SDS011;11395;53.204;6.502;2022-12-11T05:38:54;3.33;;;2.83;;
22455;SDS011;11395;53.204;6.502;2022-12-11T05:41:22;2.70;;;2.50;;
22455;SDS011;11395;53.204;6.502;2022-12-11T05:43:50;4.80;;;2.73;;
22455;SDS011;11395;53.204;6.502;2022-12-11T05:46:18;2.87;;;2.67;;
22455;SDS011;11395;53.204;6.502;2022-12-11T05:48:48;3.30;;;2.77;;
22455;SDS011;11395;53.204;6.502;2022-12-11T05:51:16;2.60;;;2.40;;
22455;SDS011;11395;53.204;6.502;2022-12-11T05:53:43;2.70;;;2.50;;
22455;SDS011;11395;53.204;6.502;2022-12-11T05:56:12;2.60;;;2.40;;
22455;SDS011;11395;53.204;6.502;2022-12-11T05:58:41;3.27;;;2.67;;
22455;SDS011;11395;53.204;6.502;2022-12-11T06:01:12;3.60;;;2.50;;
22455;SDS011;11395;53.204;6.502;2022-12-11T06:03:41;3.07;;;2.77;;
22455;SDS011;11395;53.204;6.502;2022-12-11T06:06:07;3.20;;;2.57;;
22455;SDS011;11395;53.204;6.502;2022-12-11T06:08:34;4.23;;;2.80;;
22455;SDS011;11395;53.204;6.502;2022-12-11T06:11:00;3.27;;;2.97;;
22455;SDS011;11395;53.204;6.502;2022-12-11T06:13:26;2.50;;;2.30;;
22455;SDS011;11395;53.204;6.502;2022-12-11T06:15:53;3.43;;;3.13;;
22455;SDS011;11395;53.204;6.502;2022-12-11T06:18:19;2.80;;;2.50;;
22455;SDS011;11395;53.204;6.502;2022-12-11T06:20:45;3.10;;;2.37;;
22455;SDS011;11395;53.204;6.502;2022-12-11T06:23:11;3.00;;;2.70;;
22455;SDS011;11395;53.204;6.502;2022-12-11T06:25:38;2.93;;;2.57;;
22455;SDS011;11395;53.204;6.502;2022-12-11T06:28:04;2.53;;;2.33;;
22455;SDS011;11395;53.204;6.502;2022-12-11T06:30:31;3.03;;;2.53;;
22455;SDS011;11395;53.204;6.502;2022-12-11T06:32:57;3.17;;;2.57;;
22455;SDS011;11395;53.204;6.502;2022-12-11T06:35:24;2.57;;;2.27;;
22455;SDS011;11395;53.204;6.502;2022-12-11T06:37:50;3.57;;;2.57;;
22455;SDS011;11395;53.204;6.502;2022-12-11T06:40:17;2.60;;;2.40;;
22455;SDS011;11395;53.204;6.502;2022-12-11T06:42:43;2.70;;;2.50;;
22455;SDS011;11395;53.204;6.502;2022-12-11T06:45:09;2.77;;;2.53;;
22455;SDS011;11395;53.204;6.502;2022-12-11T06:47:36;3.00;;;2.70;;
22455;SDS011;11395;53.204;6.502;2022-12-11T06:50:02;2.90;;;2.70;;
22455;SDS011;11395;53.204;6.502;2022-12-11T06:52:28;2.53;;;2.33;;
22455;SDS011;11395;53.204;6.502;2022-12-11T06:54:55;2.53;;;2.33;;
22455;SDS011;11395;53.204;6.502;2022-12-11T06:57:21;3.00;;;2.70;;
22455;SDS011;11395;53.204;6.502;2022-12-11T06:59:48;2.90;;;2.60;;
22455;SDS011;11395;53.204;6.502;2022-12-11T07:02:15;2.83;;;2.53;;
22455;SDS011;11395;53.204;6.502;2022-12-11T07:04:42;2.87;;;2.53;;
22455;SDS011;11395;53.204;6.502;2022-12-11T07:07:09;3.33;;;2.40;;
22455;SDS011;11395;53.204;6.502;2022-12-11T07:09:37;2.83;;;2.63;;
22455;SDS011;11395;53.204;6.502;2022-12-11T07:12:04;2.80;;;2.60;;
22455;SDS011;11395;53.204;6.502;2022-12-11T07:14:31;2.83;;;2.63;;
22455;SDS011;11395;53.204;6.502;2022-12-11T07:16:58;5.30;;;3.10;;
22455;SDS011;11395;53.204;6.502;2022-12-11T07:19:24;2.90;;;2.50;;
22455;SDS011;11395;53.204;6.502;2022-12-11T07:21:51;2.77;;;2.47;;
22455;SDS011;11395;53.204;6.502;2022-12-11T07:24:17;2.60;;;2.40;;
22455;SDS011;11395;53.204;6.502;2022-12-11T07:26:44;3.73;;;2.63;;
22455;SDS011;11395;53.204;6.502;2022-12-11T07:29:10;3.07;;;2.70;;
22455;SDS011;11395;53.204;6.502;2022-12-11T07:31:36;3.90;;;2.40;;
22455;SDS011;11395;53.204;6.502;2022-12-11T07:34:04;2.90;;;2.50;;
22455;SDS011;11395;53.204;6.502;2022-12-11T07:36:31;2.67;;;2.47;;
22455;SDS011;11395;53.204;6.502;2022-12-11T07:38:58;3.77;;;3.20;;
22455;SDS011;11395;53.204;6.502;2022-12-11T07:41:25;2.97;;;2.50;;
22455;SDS011;11395;53.204;6.502;2022-12-11T07:43:53;2.83;;;2.57;;
22455;SDS011;11395;53.204;6.502;2022-12-11T07:46:21;2.53;;;2.33;;
22455;SDS011;11395;53.204;6.502;2022-12-11T07:48:49;2.93;;;2.63;;
22455;SDS011;11395;53.204;6.502;2022-12-11T07:51:20;2.83;;;2.63;;
22455;SDS011;11395;53.204;6.502;2022-12-11T07:53:53;3.23;;;2.90;;
22455;SDS011;11395;53.204;6.502;2022-12-11T07:56:21;3.60;;;2.93;;
22455;SDS011;11395;53.204;6.502;2022-12-11T07:58:48;4.10;;;3.33;;
22455;SDS011;11395;53.204;6.502;2022-12-11T08:01:15;3.03;;;2.80;;
22455;SDS011;11395;53.204;6.502;2022-12-11T08:03:50;3.30;;;2.80;;
22455;SDS011;11395;53.204;6.502;2022-12-11T08:06:18;3.23;;;2.83;;
22455;SDS011;11395;53.204;6.502;2022-12-11T08:08:46;3.97;;;2.83;;
22455;SDS011;11395;53.204;6.502;2022-12-11T08:11:13;3.73;;;3.10;;
22455;SDS011;11395;53.204;6.502;2022-12-11T08:13:40;3.30;;;3.00;;
22455;SDS011;11395;53.204;6.502;2022-12-11T08:16:08;3.20;;;2.80;;
22455;SDS011;11395;53.204;6.502;2022-12-11T08:18:37;3.87;;;2.80;;
22455;SDS011;11395;53.204;6.502;2022-12-11T08:21:07;5.07;;;2.80;;
22455;SDS011;11395;53.204;6.502;2022-12-11T08:23:35;4.87;;;2.93;;
22455;SDS011;11395;53.204;6.502;2022-12-11T08:26:02;3.47;;;2.80;;
22455;SDS011;11395;53.204;6.502;2022-12-11T08:28:30;4.17;;;2.50;;
22455;SDS011;11395;53.204;6.502;2022-12-11T08:30:57;3.47;;;2.90;;
22455;SDS011;11395;53.204;6.502;2022-12-11T08:33:23;3.73;;;3.00;;
22455;SDS011;11395;53.204;6.502;2022-12-11T08:35:50;4.53;;;2.77;;
22455;SDS011;11395;53.204;6.502;2022-12-11T08:38:16;4.07;;;3.17;;
22455;SDS011;11395;53.204;6.502;2022-12-11T08:40:42;4.87;;;2.93;;
22455;SDS011;11395;53.204;6.502;2022-12-11T08:43:08;3.27;;;2.90;;
22455;SDS011;11395;53.204;6.502;2022-12-11T08:45:34;3.30;;;2.80;;
22455;SDS011;11395;53.204;6.502;2022-12-11T08:48:01;4.00;;;2.77;;
22455;SDS011;11395;53.204;6.502;2022-12-11T08:50:28;3.00;;;2.70;;
22455;SDS011;11395;53.204;6.502;2022-12-11T08:52:54;4.43;;;3.40;;
22455;SDS011;11395;53.204;6.502;2022-12-11T08:55:20;5.07;;;3.20;;
22455;SDS011;11395;53.204;6.502;2022-12-11T08:57:46;5.70;;;2.93;;
22455;SDS011;11395;53.204;6.502;2022-12-11T09:00:13;3.73;;;3.23;;
22455;SDS011;11395;53.204;6.502;2022-12-11T09:02:40;3.90;;;3.17;;
22455;SDS011;11395;53.204;6.502;2022-12-11T09:05:06;5.60;;;3.20;;
22455;SDS011;11395;53.204;6.502;2022-12-11T09:07:34;3.10;;;2.60;;
22455;SDS011;11395;53.204;6.502;2022-12-11T09:10:03;4.07;;;3.20;;
22455;SDS011;11395;53.204;6.502;2022-12-11T09:12:31;4.23;;;3.03;;
22455;SDS011;11395;53.204;6.502;2022-12-11T09:14:58;3.83;;;3.30;;
22455;SDS011;11395;53.204;6.502;2022-12-11T09:17:25;3.27;;;2.97;;
22455;SDS011;11395;53.204;6.502;2022-12-11T09:19:51;3.13;;;2.83;;
22455;SDS011;11395;53.204;6.502;2022-12-11T09:22:17;3.80;;;3.23;;
22455;SDS011;11395;53.204;6.502;2022-12-11T09:24:44;3.77;;;2.80;;
22455;SDS011;11395;53.204;6.502;2022-12-11T09:27:11;3.93;;;2.90;;
22455;SDS011;11395;53.204;6.502;2022-12-11T09:29:37;4.30;;;3.30;;
22455;SDS011;11395;53.204;6.502;2022-12-11T09:32:04;3.60;;;3.07;;
22455;SDS011;11395;53.204;6.502;2022-12-11T09:34:30;3.07;;;2.77;;
22455;SDS011;11395;53.204;6.502;2022-12-11T09:36:56;4.27;;;3.27;;
22455;SDS011;11395;53.204;6.502;2022-12-11T09:39:22;3.77;;;2.90;;
22455;SDS011;11395;53.204;6.502;2022-12-11T09:46:56;3.60;;;3.10;;
22455;SDS011;11395;53.204;6.502;2022-12-11T09:49:30;4.33;;;3.10;;
22455;SDS011;11395;53.204;6.502;2022-12-11T09:52:09;3.87;;;2.97;;
22455;SDS011;11395;53.204;6.502;2022-12-11T09:54:42;3.70;;;2.80;;
22455;SDS011;11395;53.204;6.502;2022-12-11T10:05:35;3.67;;;3.30;;
22455;SDS011;11395;53.204;6.502;2022-12-11T10:11:02;3.70;;;2.93;;
22455;SDS011;11395;53.204;6.502;2022-12-11T10:18:46;4.67;;;3.30;;
22455;SDS011;11395;53.204;6.502;2022-12-11T10:21:13;3.77;;;2.90;;
22455;SDS011;11395;53.204;6.502;2022-12-11T10:23:43;5.27;;;3.27;;
22455;SDS011;11395;53.204;6.502;2022-12-11T10:26:16;3.93;;;3.53;;
22455;SDS011;11395;53.204;6.502;2022-12-11T10:28:44;3.17;;;2.77;;
22455;SDS011;11395;53.204;6.502;2022-12-11T10:33:58;5.00;;;2.93;;
22455;SDS011;11395;53.204;6.502;2022-12-11T10:36:44;3.20;;;2.70;;
22455;SDS011;11395;53.204;6.502;2022-12-11T10:39:12;3.17;;;2.80;;
22455;SDS011;11395;53.204;6.502;2022-12-11T10:41:47;3.37;;;3.07;;
22455;SDS011;11395;53.204;6.502;2022-12-11T10:44:22;3.47;;;3.00;;
22455;SDS011;11395;53.204;6.502;2022-12-11T10:49:58;3.63;;;3.00;;
22455;SDS011;11395;53.204;6.502;2022-12-11T10:55:27;3.47;;;2.90;;
22455;SDS011;11395;53.204;6.502;2022-12-11T10:58:00;3.50;;;3.10;;
22455;SDS011;11395;53.204;6.502;2022-12-11T11:02:58;3.27;;;2.97;;
22455;SDS011;11395;53.204;6.502;2022-12-11T11:05:33;3.20;;;2.87;;
22455;SDS011;11395;53.204;6.502;2022-12-11T11:13:24;4.30;;;3.13;;
22455;SDS011;11395;53.204;6.502;2022-12-11T11:16:10;3.27;;;2.93;;
22455;SDS011;11395;53.204;6.502;2022-12-11T11:18:40;3.57;;;2.80;;
22455;SDS011;11395;53.204;6.502;2022-12-11T11:21:18;5.13;;;3.37;;
22455;SDS011;11395;53.204;6.502;2022-12-11T11:23:45;4.33;;;3.43;;
22455;SDS011;11395;53.204;6.502;2022-12-11T11:26:12;4.10;;;3.03;;
22455;SDS011;11395;53.204;6.502;2022-12-11T11:28:39;4.73;;;3.80;;
22455;SDS011;11395;53.204;6.502;2022-12-11T11:31:12;4.17;;;3.27;;
22455;SDS011;11395;53.204;6.502;2022-12-11T11:33:44;4.27;;;3.70;;
22455;SDS011;11395;53.204;6.502;2022-12-11T11:36:28;5.03;;;3.43;;
22455;SDS011;11395;53.204;6.502;2022-12-11T11:44:36;4.00;;;3.40;;
22455;SDS011;11395;53.204;6.502;2022-12-11T11:47:13;4.37;;;2.90;;
22455;SDS011;11395;53.204;6.502;2022-12-11T11:49:47;3.33;;;3.03;;
22455;SDS011;11395;53.204;6.502;2022-12-11T12:00:21;4.20;;;3.23;;
22455;SDS011;11395;53.204;6.502;2022-12-11T12:02:53;3.73;;;3.33;;
22455;SDS011;11395;53.204;6.502;2022-12-11T12:25:15;4.40;;;3.47;;
22455;SDS011;11395;53.204;6.502;2022-12-11T12:30:15;4.53;;;3.40;;
22455;SDS011;11395;53.204;6.502;2022-12-11T12:32:56;3.97;;;3.50;;
22455;SDS011;11395;53.204;6.502;2022-12-11T12:36:26;4.13;;;3.30;;
22455;SDS011;11395;53.204;6.502;2022-12-11T12:38:33;3.97;;;3.37;;
22455;SDS011;11395;53.204;6.502;2022-12-11T12:44:21;3.40;;;3.10;;
22455;SDS011;11395;53.204;6.502;2022-12-11T12:46:57;3.80;;;3.40;;
22455;SDS011;11395;53.204;6.502;2022-12-11T12:52:00;3.93;;;3.53;;
22455;SDS011;11395;53.204;6.502;2022-12-11T12:54:28;3.43;;;3.13;;
22455;SDS011;11395;53.204;6.502;2022-12-11T12:56:56;3.73;;;3.33;;
22455;SDS011;11395;53.204;6.502;2022-12-11T12:59:25;4.27;;;3.47;;
22455;SDS011;11395;53.204;6.502;2022-12-11T13:01:53;3.37;;;3.07;;
22455;SDS011;11395;53.204;6.502;2022-12-11T13:09:54;3.80;;;3.00;;
22455;SDS011;11395;53.204;6.502;2022-12-11T13:12:44;3.43;;;3.10;;
22455;SDS011;11395;53.204;6.502;2022-12-11T13:15:31;3.73;;;3.10;;
22455;SDS011;11395;53.204;6.502;2022-12-11T13:17:58;4.20;;;3.47;;
22455;SDS011;11395;53.204;6.502;2022-12-11T13:20:27;3.90;;;3.13;;
22455;SDS011;11395;53.204;6.502;2022-12-11T13:25:32;3.73;;;3.10;;
22455;SDS011;11395;53.204;6.502;2022-12-11T13:31:04;6.50;;;3.60;;
22455;SDS011;11395;53.204;6.502;2022-12-11T13:33:32;4.03;;;3.27;;
22455;SDS011;11395;53.204;6.502;2022-12-11T13:36:05;4.33;;;3.40;;
22455;SDS011;11395;53.204;6.502;2022-12-11T13:38:49;4.03;;;3.53;;
22455;SDS011;11395;53.204;6.502;2022-12-11T13:41:19;3.67;;;3.27;;
22455;SDS011;11395;53.204;6.502;2022-12-11T13:43:46;4.13;;;3.73;;
22455;SDS011;11395;53.204;6.502;2022-12-11T13:46:14;4.70;;;3.50;;
22455;SDS011;11395;53.204;6.502;2022-12-11T13:48:49;3.57;;;3.27;;
22455;SDS011;11395;53.204;6.502;2022-12-11T13:51:20;4.50;;;3.53;;
22455;SDS011;11395;53.204;6.502;2022-12-11T13:53:48;4.70;;;3.70;;
22455;SDS011;11395;53.204;6.502;2022-12-11T13:56:31;4.77;;;3.83;;
22455;SDS011;11395;53.204;6.502;2022-12-11T13:58:58;5.63;;;4.13;;
22455;SDS011;11395;53.204;6.502;2022-12-11T14:01:26;3.90;;;3.50;;
22455;SDS011;11395;53.204;6.502;2022-12-11T14:04:01;4.03;;;2.90;;
22455;SDS011;11395;53.204;6.502;2022-12-11T14:06:32;3.57;;;2.80;;
22455;SDS011;11395;53.204;6.502;2022-12-11T14:09:00;3.67;;;3.30;;
22455;SDS011;11395;53.204;6.502;2022-12-11T14:11:31;3.53;;;3.03;;
22455;SDS011;11395;53.204;6.502;2022-12-11T14:14:01;3.63;;;3.20;;
22455;SDS011;11395;53.204;6.502;2022-12-11T14:16:31;3.50;;;3.10;;
22455;SDS011;11395;53.204;6.502;2022-12-11T14:19:00;4.73;;;3.40;;
22455;SDS011;11395;53.204;6.502;2022-12-11T14:21:29;3.73;;;3.33;;
22455;SDS011;11395;53.204;6.502;2022-12-11T14:23:57;3.83;;;3.10;;
22455;SDS011;11395;53.204;6.502;2022-12-11T14:28:52;3.87;;;3.23;;
22455;SDS011;11395;53.204;6.502;2022-12-11T14:31:26;3.63;;;2.93;;
22455;SDS011;11395;53.204;6.502;2022-12-11T14:33:59;3.17;;;2.73;;
22455;SDS011;11395;53.204;6.502;2022-12-11T14:36:32;4.10;;;3.13;;
22455;SDS011;11395;53.204;6.502;2022-12-11T14:39:05;3.03;;;2.73;;
22455;SDS011;11395;53.204;6.502;2022-12-11T14:41:58;3.60;;;3.30;;
22455;SDS011;11395;53.204;6.502;2022-12-11T14:44:34;3.53;;;3.23;;
22455;SDS011;11395;53.204;6.502;2022-12-11T14:47:23;4.10;;;3.40;;
22455;SDS011;11395;53.204;6.502;2022-12-11T14:49:56;3.17;;;2.87;;
22455;SDS011;11395;53.204;6.502;2022-12-11T14:52:45;3.20;;;2.90;;
22455;SDS011;11395;53.204;6.502;2022-12-11T14:55:26;3.63;;;2.60;;
22455;SDS011;11395;53.204;6.502;2022-12-11T14:57:56;4.77;;;3.00;;
22455;SDS011;11395;53.204;6.502;2022-12-11T15:00:37;3.93;;;3.50;;
22455;SDS011;11395;53.204;6.502;2022-12-11T15:05:49;4.30;;;3.77;;
22455;SDS011;11395;53.204;6.502;2022-12-11T15:08:21;3.90;;;3.00;;
22455;SDS011;11395;53.204;6.502;2022-12-11T15:13:45;4.60;;;3.23;;
22455;SDS011;11395;53.204;6.502;2022-12-11T15:16:23;4.57;;;3.60;;
22455;SDS011;11395;53.204;6.502;2022-12-11T15:18:51;3.57;;;3.13;;
22455;SDS011;11395;53.204;6.502;2022-12-11T15:21:27;3.60;;;3.30;;
22455;SDS011;11395;53.204;6.502;2022-12-11T15:23:55;3.83;;;3.53;;
22455;SDS011;11395;53.204;6.502;2022-12-11T15:26:40;3.67;;;3.23;;
22455;SDS011;11395;53.204;6.502;2022-12-11T15:31:59;3.53;;;3.20;;
22455;SDS011;11395;53.204;6.502;2022-12-11T15:34:45;4.60;;;4.20;;
22455;SDS011;11395;53.204;6.502;2022-12-11T15:39:44;11.70;;;9.00;;
22455;SDS011;11395;53.204;6.502;2022-12-11T15:42:11;14.60;;;10.43;;
22455;SDS011;11395;53.204;6.502;2022-12-11T15:44:40;12.30;;;9.87;;
22455;SDS011;11395;53.204;6.502;2022-12-11T15:47:11;16.03;;;10.63;;
22455;SDS011;11395;53.204;6.502;2022-12-11T15:49:43;13.20;;;10.70;;
22455;SDS011;11395;53.204;6.502;2022-12-11T15:52:10;14.40;;;10.63;;
22455;SDS011;11395;53.204;6.502;2022-12-11T15:54:36;14.50;;;10.90;;
22455;SDS011;11395;53.204;6.502;2022-12-11T15:57:03;16.70;;;9.73;;
22455;SDS011;11395;53.204;6.502;2022-12-11T15:59:32;11.93;;;10.27;;
22455;SDS011;11395;53.204;6.502;2022-12-11T16:01:59;14.10;;;10.57;;
22455;SDS011;11395;53.204;6.502;2022-12-11T16:04:25;14.17;;;10.30;;
22455;SDS011;11395;53.204;6.502;2022-12-11T16:06:51;13.73;;;10.60;;
22455;SDS011;11395;53.204;6.502;2022-12-11T16:09:17;12.87;;;10.03;;
22455;SDS011;11395;53.204;6.502;2022-12-11T16:11:44;12.40;;;9.83;;
22455;SDS011;11395;53.204;6.502;2022-12-11T16:14:10;10.63;;;9.53;;
22455;SDS011;11395;53.204;6.502;2022-12-11T16:16:37;13.73;;;9.27;;
22455;SDS011;11395;53.204;6.502;2022-12-11T16:19:04;11.47;;;8.70;;
22455;SDS011;11395;53.204;6.502;2022-12-11T16:21:30;14.67;;;9.37;;
22455;SDS011;11395;53.204;6.502;2022-12-11T16:23:57;10.67;;;8.37;;
22455;SDS011;11395;53.204;6.502;2022-12-11T16:26:23;10.90;;;9.30;;
22455;SDS011;11395;53.204;6.502;2022-12-11T16:28:50;10.03;;;7.87;;
22455;SDS011;11395;53.204;6.502;2022-12-11T16:31:16;9.23;;;7.97;;
22455;SDS011;11395;53.204;6.502;2022-12-11T16:33:43;9.73;;;7.70;;
22455;SDS011;11395;53.204;6.502;2022-12-11T16:36:13;10.03;;;8.20;;
22455;SDS011;11395;53.204;6.502;2022-12-11T16:38:45;8.03;;;7.23;;
22455;SDS011;11395;53.204;6.502;2022-12-11T16:41:12;8.20;;;7.17;;
22455;SDS011;11395;53.204;6.502;2022-12-11T16:43:39;12.13;;;8.70;;
22455;SDS011;11395;53.204;6.502;2022-12-11T16:46:06;12.90;;;8.97;;
22455;SDS011;11395;53.204;6.502;2022-12-11T16:48:32;15.70;;;10.37;;
22455;SDS011;11395;53.204;6.502;2022-12-11T16:50:59;15.17;;;9.33;;
22455;SDS011;11395;53.204;6.502;2022-12-11T16:53:26;12.30;;;9.10;;
22455;SDS011;11395;53.204;6.502;2022-12-11T16:55:52;12.30;;;8.83;;
22455;SDS011;11395;53.204;6.502;2022-12-11T16:58:18;16.03;;;10.30;;
22455;SDS011;11395;53.204;6.502;2022-12-11T17:00:45;12.17;;;7.90;;
22455;SDS011;11395;53.204;6.502;2022-12-11T17:03:12;11.13;;;7.50;;
22455;SDS011;11395;53.204;6.502;2022-12-11T17:05:39;11.83;;;7.63;;
22455;SDS011;11395;53.204;6.502;2022-12-11T17:08:06;10.80;;;7.37;;
22455;SDS011;11395;53.204;6.502;2022-12-11T17:10:32;10.23;;;7.63;;
22455;SDS011;11395;53.204;6.502;2022-12-11T17:13:01;8.07;;;6.87;;
22455;SDS011;11395;53.204;6.502;2022-12-11T17:15:28;10.57;;;6.90;;
22455;SDS011;11395;53.204;6.502;2022-12-11T17:17:55;9.87;;;6.73;;
22455;SDS011;11395;53.204;6.502;2022-12-11T17:20:21;9.07;;;6.87;;
22455;SDS011;11395;53.204;6.502;2022-12-11T17:22:47;10.53;;;6.40;;
22455;SDS011;11395;53.204;6.502;2022-12-11T17:25:13;7.30;;;6.07;;